Portada
METAR-TAF:

METAR-TAF

Aeropuertos :

Islamabad, Pakistán

Aeropuerto Internacional Benazir Bhutto

latitud: 33-37N, longitud: 073-06E, altitud: 507 m

Observación

El informe se hizo hace 31 minutos, a las 01:00 UTC
Viento calma
Temperatura 6°C
Humedad 81%
Presión 1014 hPa
Visibilidad: 4000 m
neblina

METAR: OPRN 240100Z 00000KT 4000 BR NSC 06/03 Q1014 A29.96 BECMG 3500

Hora: 06:31 (01:31 UTC)

Pronóstico

El informe se hizo hace 4 horas y 1 minutos, a las 21:30 UTC
Pronóstico válido del 24 a las 00 UTC al 25 a las 06 UTC
Viento 10 kt del oeste-suroeste
Visibilidad: 3000 m
neblina
Temporalmente
del 24 a las 03 UTC al 24 a las 06 UTC
Visibilidad: 1500 m
neblina
Evolucionando progresivamente
del 24 a las 06 UTC al 24 a las 08 UTC
Visibilidad: 4000 m
calima
Temporalmente
del 25 a las 03 UTC al 25 a las 06 UTC
neblina

TAF: OPRN 232130Z 2400/2506 25010KT 3000 BR NSC TEMPO 2403/2406 1500 BR BECMG 2406/2408 4000 HZ TEMPO 2503/2506 150 BR

Observaciones y pronósticos meteorológicos de más de 4000 aeropuertos (mensajes METAR y TAF).

Los puntos amarillos y rojos representan las estaciones disponibles.

Ponga el ratón en el punto deseado para ver el nombre de la estación.

Haga clic para ver las observaciones y los pronósticos meteorológicos.

Para cambiar el mapa : haga clic en los botones verdes con una cruz de color negro para hacer un zoom, en el botón verde con un guión para alejar o en las flechas verdes para mapas adyacentes.


METAR-TAF: